Time;durP1;ratioP1;P1;durP2;ratioP2;P2;SDS_P1;SDS_P2;PMS_P1;PMS_P2;Temp;Humidity;BMP_temperature;BMP_pressure;BME280_temperature;BME280_humidity;BME280_pressure;Samples;Min_cycle;Max_cycle;Signal;HPM_P1;HPM_P2
2020/12/06 00:01:52;;;;;;;3.88;2.20;;;14.20;49.60;;;;;;5056708;28;20474;-83
2020/12/06 00:04:20;;;;;;;5.63;2.47;;;14.20;49.40;;;;;;5056458;28;20119;-84
2020/12/06 00:06:49;;;;;;;4.80;2.75;;;14.20;49.30;;;;;;5056254;28;20017;-82
2020/12/06 00:09:17;;;;;;;4.85;2.72;;;14.30;49.20;;;;;;5055073;28;20493;-80
2020/12/06 00:11:42;;;;;;;5.70;2.25;;;14.30;49.10;;;;;;5055847;28;20028;-83
2020/12/06 00:14:08;;;;;;;5.78;2.65;;;14.40;49.20;;;;;;5056044;28;20028;-86
2020/12/06 00:16:34;;;;;;;4.35;2.50;;;14.40;49.00;;;;;;5056305;28;20021;-85
2020/12/06 00:19:00;;;;;;;4.68;2.35;;;14.40;48.80;;;;;;5054957;28;20036;-82
2020/12/06 00:21:25;;;;;;;9.88;2.50;;;14.50;48.70;;;;;;5054998;28;20382;-86
2020/12/06 00:23:51;;;;;;;5.80;2.47;;;14.50;48.70;;;;;;5055937;28;20049;-84
2020/12/06 00:26:24;;;;;;;4.10;2.30;;;14.60;48.60;;;;;;5054787;28;20029;-84
2020/12/06 00:28:51;;;;;;;7.50;2.20;;;14.60;48.50;;;;;;5055791;28;20366;-80
2020/12/06 00:31:17;;;;;;;5.82;2.65;;;14.70;48.40;;;;;;5055865;28;20071;-82
2020/12/06 00:33:44;;;;;;;4.47;2.20;;;14.70;48.30;;;;;;5055808;28;20020;-81
2020/12/06 00:36:14;;;;;;;9.68;2.55;;;14.70;48.20;;;;;;5056376;28;20025;-86
2020/12/06 00:38:40;;;;;;;7.13;3.10;;;14.80;48.10;;;;;;5056759;28;20489;-84
2020/12/06 00:41:10;;;;;;;7.53;2.55;;;14.90;48.20;;;;;;5055478;28;20025;-86
2020/12/06 00:43:36;;;;;;;4.97;1.83;;;14.90;47.90;;;;;;5056359;28;20501;-82
2020/12/06 00:46:03;;;;;;;10.45;2.75;;;14.90;47.70;;;;;;5055504;28;20029;-83
2020/12/06 00:48:28;;;;;;;5.22;2.10;;;15.00;47.60;;;;;;5056617;28;20025;-82
2020/12/06 00:50:55;;;;;;;4.75;2.10;;;15.00;47.60;;;;;;5054254;28;20036;-85
2020/12/06 00:53:20;;;;;;;9.65;2.65;;;15.00;47.70;;;;;;5060636;28;20033;-84
2020/12/06 00:55:46;;;;;;;3.72;1.92;;;15.10;47.40;;;;;;5056487;28;20044;-85
2020/12/06 00:58:12;;;;;;;6.07;2.42;;;15.10;47.30;;;;;;5056747;28;20024;-81
2020/12/06 01:00:37;;;;;;;7.18;2.55;;;15.20;47.10;;;;;;5067377;28;20386;-87
2020/12/06 01:03:03;;;;;;;5.15;2.00;;;15.20;47.20;;;;;;5057023;28;20103;-81
2020/12/06 01:05:29;;;;;;;5.05;1.92;;;15.20;47.10;;;;;;5056524;28;20052;-85
2020/12/06 01:07:55;;;;;;;5.38;1.67;;;15.30;46.80;;;;;;5056097;28;20033;-82
2020/12/06 01:10:20;;;;;;;6.53;2.22;;;15.30;46.80;;;;;;5055651;28;20025;-86
2020/12/06 01:12:46;;;;;;;5.07;2.00;;;15.30;46.70;;;;;;5054558;28;20063;-83
2020/12/06 01:15:12;;;;;;;5.15;2.88;;;15.40;46.60;;;;;;5053890;28;20070;-87
2020/12/06 01:17:38;;;;;;;5.72;2.22;;;15.40;46.60;;;;;;5053938;28;20064;-85
2020/12/06 01:20:06;;;;;;;9.75;4.65;;;15.50;46.50;;;;;;5054842;28;20025;-84
2020/12/06 01:22:32;;;;;;;6.47;2.60;;;15.50;46.40;;;;;;5052385;28;20056;-84
2020/12/06 01:24:58;;;;;;;5.57;2.78;;;15.50;46.20;;;;;;5054123;28;20040;-82
2020/12/06 01:27:24;;;;;;;3.90;2.55;;;15.50;46.30;;;;;;5061591;28;20033;-88
2020/12/06 01:29:50;;;;;;;5.85;2.20;;;15.60;46.10;;;;;;5069231;28;20109;-81
2020/12/06 01:32:16;;;;;;;4.65;2.42;;;15.60;46.30;;;;;;5053874;28;20029;-83
2020/12/06 01:34:41;;;;;;;5.78;2.92;;;15.60;46.00;;;;;;5057177;28;20069;-85
2020/12/06 01:37:07;;;;;;;5.88;2.40;;;15.60;46.00;;;;;;5053923;28;20414;-86
2020/12/06 01:39:33;;;;;;;4.35;2.08;;;15.60;45.90;;;;;;5044336;28;20040;-88
2020/12/06 01:41:59;;;;;;;6.82;2.33;;;15.60;45.70;;;;;;5047687;28;20033;-80
2020/12/06 01:44:26;;;;;;;5.10;2.28;;;15.70;46.30;;;;;;5055759;28;20573;-82
2020/12/06 01:46:54;;;;;;;4.20;1.77;;;15.70;45.70;;;;;;5054742;28;20029;-82
2020/12/06 01:49:35;;;;;;;4.22;2.15;;;15.70;45.60;;;;;;5056657;28;20063;-82
2020/12/06 01:52:03;;;;;;;4.95;2.22;;;15.80;45.60;;;;;;5081286;28;20029;-85
2020/12/06 01:54:29;;;;;;;8.32;2.42;;;15.80;45.40;;;;;;5056751;28;20021;-82
2020/12/06 01:56:54;;;;;;;5.05;2.22;;;15.80;45.50;;;;;;5058699;28;20032;-82
2020/12/06 01:59:20;;;;;;;5.30;1.98;;;15.80;45.30;;;;;;5057077;28;20029;-84
2020/12/06 02:01:58;;;;;;;7.10;2.00;;;15.80;45.20;;;;;;5055576;28;20052;-87
2020/12/06 02:04:25;;;;;;;6.28;2.55;;;15.90;45.20;;;;;;5056793;28;20063;-83
2020/12/06 02:06:52;;;;;;;5.50;2.30;;;15.90;45.30;;;;;;5057618;28;20029;-84
2020/12/06 02:09:18;;;;;;;6.15;2.05;;;15.90;45.40;;;;;;5053514;28;20044;-83
2020/12/06 02:11:44;;;;;;;6.82;2.08;;;15.90;45.40;;;;;;5053714;28;20021;-81
2020/12/06 02:14:11;;;;;;;5.13;2.13;;;15.80;45.40;;;;;;5053485;28;20112;-86
2020/12/06 02:16:37;;;;;;;5.18;2.00;;;15.80;45.50;;;;;;5053413;28;20067;-86
2020/12/06 02:19:06;;;;;;;6.53;2.47;;;15.80;45.60;;;;;;5052734;28;20025;-84
2020/12/06 02:21:33;;;;;;;3.53;1.90;;;15.70;45.60;;;;;;5052318;28;20032;-82
2020/12/06 02:24:00;;;;;;;5.93;2.17;;;15.70;45.80;;;;;;5053317;28;20048;-85
2020/12/06 02:26:26;;;;;;;4.65;2.05;;;15.70;45.80;;;;;;5052216;28;20036;-83
2020/12/06 02:28:51;;;;;;;6.68;2.67;;;15.60;45.90;;;;;;5053450;28;20481;-84
2020/12/06 02:31:17;;;;;;;3.83;1.88;;;15.60;46.00;;;;;;5052449;28;20070;-83
2020/12/06 02:33:43;;;;;;;4.53;2.08;;;15.50;46.10;;;;;;5052171;28;20040;-85
2020/12/06 02:36:09;;;;;;;4.57;2.45;;;15.50;46.20;;;;;;5058112;28;20482;-85
2020/12/06 02:38:35;;;;;;;3.47;2.05;;;15.40;46.30;;;;;;5065228;28;20048;-83
2020/12/06 02:41:01;;;;;;;3.97;2.30;;;15.40;46.50;;;;;;5076720;28;20041;-84
2020/12/06 02:43:26;;;;;;;5.45;2.55;;;15.30;46.60;;;;;;5080080;28;20119;-79
2020/12/06 02:45:52;;;;;;;5.85;2.05;;;15.30;46.60;;;;;;5072332;28;20028;-80
2020/12/06 02:48:18;;;;;;;3.72;2.35;;;15.20;46.70;;;;;;5076850;28;20048;-80
2020/12/06 02:50:43;;;;;;;7.45;2.03;;;15.20;46.90;;;;;;5068280;28;20051;-80
2020/12/06 02:53:09;;;;;;;6.45;2.67;;;15.10;47.00;;;;;;5068323;28;20021;-79
2020/12/06 02:55:35;;;;;;;6.43;2.75;;;15.10;47.10;;;;;;5066278;28;20031;-80
2020/12/06 02:58:01;;;;;;;6.63;3.05;;;15.00;47.20;;;;;;5059407;28;20093;-83
2020/12/06 03:00:26;;;;;;;4.28;2.60;;;15.00;47.30;;;;;;5058816;28;20075;-85
2020/12/06 03:02:52;;;;;;;6.65;2.92;;;15.00;47.40;;;;;;5058968;28;20407;-83
2020/12/06 03:05:18;;;;;;;5.95;2.50;;;15.00;47.60;;;;;;5057454;28;20107;-82
2020/12/06 03:07:44;;;;;;;4.43;2.78;;;14.90;47.50;;;;;;5055570;28;20025;-83
2020/12/06 03:10:09;;;;;;;7.00;3.08;;;14.90;47.60;;;;;;5057269;28;20103;-83
2020/12/06 03:12:36;;;;;;;7.25;3.28;;;14.90;47.70;;;;;;5056901;28;20052;-83
2020/12/06 03:15:02;;;;;;;6.70;2.88;;;14.80;47.70;;;;;;5056539;28;20076;-82
2020/12/06 03:17:28;;;;;;;6.28;3.00;;;14.80;47.80;;;;;;5055050;28;20029;-81
2020/12/06 03:19:54;;;;;;;5.07;3.10;;;14.80;47.90;;;;;;5055659;28;20082;-84
2020/12/06 03:22:20;;;;;;;6.35;2.80;;;14.80;47.90;;;;;;5056557;28;20040;-82
2020/12/06 03:24:46;;;;;;;3.65;2.35;;;14.80;47.90;;;;;;5056801;28;20080;-82
2020/12/06 03:27:11;;;;;;;4.45;2.70;;;14.80;47.90;;;;;;5056958;28;20450;-82
2020/12/06 03:29:37;;;;;;;5.63;2.80;;;14.80;47.90;;;;;;5055510;28;20108;-84
2020/12/06 03:32:03;;;;;;;5.85;3.17;;;14.80;47.90;;;;;;5057171;28;20033;-82
2020/12/06 03:34:29;;;;;;;6.80;2.88;;;14.80;48.00;;;;;;5055651;28;20540;-83
2020/12/06 03:36:54;;;;;;;7.82;2.58;;;14.70;48.00;;;;;;5056758;28;20550;-83
2020/12/06 03:39:20;;;;;;;9.27;3.00;;;14.70;48.10;;;;;;5056663;28;20501;-85
2020/12/06 03:41:46;;;;;;;5.28;2.53;;;14.70;48.10;;;;;;5055543;28;20082;-84
2020/12/06 03:44:12;;;;;;;6.43;2.58;;;14.70;48.10;;;;;;5055524;28;20060;-84
2020/12/06 03:46:38;;;;;;;8.27;2.85;;;14.70;48.10;;;;;;5055911;28;20029;-86
2020/12/06 03:49:04;;;;;;;5.57;3.00;;;14.70;48.10;;;;;;5055902;28;20509;-84
2020/12/06 03:51:30;;;;;;;6.80;3.65;;;14.80;48.10;;;;;;5056381;28;20029;-85
2020/12/06 03:53:56;;;;;;;8.77;3.65;;;14.70;48.00;;;;;;5055972;28;20020;-86
2020/12/06 03:56:22;;;;;;;7.10;3.55;;;14.80;48.10;;;;;;5055508;28;20025;-81
2020/12/06 03:58:47;;;;;;;9.90;3.15;;;14.80;48.10;;;;;;5056252;28;20029;-85
2020/12/06 04:01:13;;;;;;;6.07;2.65;;;14.70;48.10;;;;;;5056392;28;20025;-83
2020/12/06 04:03:42;;;;;;;5.18;2.72;;;14.70;48.10;;;;;;5056296;28;20017;-82
2020/12/06 04:06:07;;;;;;;3.78;2.20;;;14.70;48.20;;;;;;5055177;28;20025;-85
2020/12/06 04:08:33;;;;;;;4.05;2.03;;;14.70;48.20;;;;;;5056012;28;20021;-85
2020/12/06 04:10:59;;;;;;;6.35;3.20;;;14.70;48.20;;;;;;5055046;28;20024;-83
2020/12/06 04:13:24;;;;;;;8.18;3.15;;;14.70;48.20;;;;;;5056105;28;20025;-83
2020/12/06 04:15:50;;;;;;;8.75;2.92;;;14.70;48.30;;;;;;5054760;28;20052;-85
2020/12/06 04:18:16;;;;;;;5.00;2.67;;;14.70;48.30;;;;;;5054710;28;20524;-84
2020/12/06 04:20:42;;;;;;;7.03;2.47;;;14.70;48.30;;;;;;5054898;28;20128;-84
2020/12/06 04:23:07;;;;;;;6.70;2.72;;;14.70;48.30;;;;;;5054752;28;20049;-83
2020/12/06 04:25:33;;;;;;;5.90;2.88;;;14.70;48.30;;;;;;5055878;28;20021;-83
2020/12/06 04:27:59;;;;;;;6.82;3.03;;;14.70;48.30;;;;;;5055790;28;20031;-82
2020/12/06 04:30:24;;;;;;;7.10;2.67;;;14.70;48.20;;;;;;5055766;28;20079;-85
2020/12/06 04:32:50;;;;;;;7.32;2.38;;;14.70;48.20;;;;;;5054450;28;20064;-81
2020/12/06 04:35:16;;;;;;;5.18;2.13;;;14.70;48.20;;;;;;5054214;28;20446;-82
2020/12/06 04:37:42;;;;;;;6.45;2.50;;;14.70;48.30;;;;;;5054581;28;20494;-85
2020/12/06 04:40:07;;;;;;;4.38;2.50;;;14.60;48.30;;;;;;5055608;28;20027;-83
2020/12/06 04:42:33;;;;;;;7.78;2.78;;;14.60;48.30;;;;;;5054500;28;20031;-85
2020/12/06 04:45:00;;;;;;;5.30;2.70;;;14.60;48.30;;;;;;5055586;28;20100;-85
2020/12/06 04:47:36;;;;;;;5.32;2.65;;;14.50;48.30;;;;;;5052793;28;20029;-86
2020/12/06 04:50:04;;;;;;;3.55;2.00;;;14.50;48.40;;;;;;5055556;28;20029;-85
2020/12/06 04:52:49;;;;;;;4.80;2.50;;;14.50;48.50;;;;;;5055151;28;20029;-83
2020/12/06 04:55:18;;;;;;;6.00;2.72;;;14.50;48.50;;;;;;5054131;28;20104;-84
2020/12/06 04:57:47;;;;;;;4.65;2.60;;;14.50;48.60;;;;;;5053111;28;20025;-86
2020/12/06 05:00:12;;;;;;;5.10;2.70;;;14.50;48.60;;;;;;5054032;28;20496;-85
2020/12/06 05:02:42;;;;;;;7.90;2.35;;;14.50;48.60;;;;;;5054871;28;20029;-82
2020/12/06 05:05:08;;;;;;;5.65;2.50;;;14.40;48.70;;;;;;5055407;28;20100;-82
2020/12/06 05:07:35;;;;;;;5.65;2.60;;;14.40;48.70;;;;;;5055035;28;20029;-86
2020/12/06 05:10:02;;;;;;;9.10;2.67;;;14.40;48.60;;;;;;5054990;28;20115;-85
2020/12/06 05:12:28;;;;;;;6.60;2.67;;;14.40;48.70;;;;;;5054288;28;20017;-85
2020/12/06 05:14:54;;;;;;;9.30;2.53;;;14.30;48.70;;;;;;5054882;28;20374;-82
2020/12/06 05:17:20;;;;;;;7.07;2.55;;;14.40;48.80;;;;;;5053501;28;20457;-84
2020/12/06 05:19:47;;;;;;;6.57;2.67;;;14.30;48.80;;;;;;5053872;28;20536;-85
2020/12/06 05:22:12;;;;;;;7.13;2.78;;;14.30;48.80;;;;;;5055293;28;20063;-81
2020/12/06 05:24:41;;;;;;;4.68;2.58;;;14.30;48.90;;;;;;5053356;28;20045;-83
2020/12/06 05:27:08;;;;;;;5.40;2.88;;;14.30;48.90;;;;;;5054622;28;20025;-86
2020/12/06 05:29:39;;;;;;;9.23;2.90;;;14.30;48.90;;;;;;5053529;28;20104;-85
2020/12/06 05:32:06;;;;;;;6.40;2.55;;;14.30;48.90;;;;;;5054697;28;20047;-81
2020/12/06 05:34:32;;;;;;;5.53;2.47;;;14.30;48.80;;;;;;5053464;28;20100;-84
2020/12/06 05:37:06;;;;;;;7.18;2.58;;;14.30;48.80;;;;;;5054453;28;20116;-85
2020/12/06 05:39:32;;;;;;;;;;;14.30;48.80;;;;;;5054502;28;20040;-85
2020/12/06 05:41:59;;;;;;;6.40;3.17;;;14.40;48.80;;;;;;5055012;28;19905;-85
2020/12/06 05:44:25;;;;;;;7.15;2.50;;;14.40;48.60;;;;;;5054114;28;20478;-82
2020/12/06 05:46:51;;;;;;;6.22;2.65;;;14.40;48.60;;;;;;5053413;28;20025;-85
2020/12/06 05:49:22;;;;;;;7.22;2.20;;;14.40;48.50;;;;;;5053648;28;20025;-82
2020/12/06 05:51:50;;;;;;;5.78;2.63;;;14.40;48.50;;;;;;5039399;28;20036;-84
2020/12/06 05:54:19;;;;;;;8.05;2.78;;;14.50;48.50;;;;;;5034473;28;20079;-84
2020/12/06 05:56:46;;;;;;;5.55;2.20;;;14.50;48.40;;;;;;5052092;28;20031;-84
2020/12/06 05:59:11;;;;;;;5.72;2.60;;;14.50;48.40;;;;;;5053588;28;20036;-85
2020/12/06 06:01:38;;;;;;;4.10;2.33;;;14.50;48.30;;;;;;5053584;28;20033;-83
2020/12/06 06:04:06;;;;;;;3.90;2.20;;;14.50;48.30;;;;;;5051372;28;20107;-81
2020/12/06 06:06:43;;;;;;;4.78;2.47;;;14.60;48.30;;;;;;5053449;28;20112;-83
2020/12/06 06:09:12;;;;;;;5.50;2.60;;;14.60;48.20;;;;;;5053128;28;20537;-82
2020/12/06 06:11:39;;;;;;;5.63;2.85;;;14.60;48.00;;;;;;5053147;28;20032;-87
2020/12/06 06:14:08;;;;;;;4.95;2.17;;;14.60;48.10;;;;;;5051564;28;20025;-84
2020/12/06 06:16:35;;;;;;;4.57;2.53;;;14.60;47.90;;;;;;5053001;28;20100;-82
2020/12/06 06:19:04;;;;;;;4.38;2.30;;;14.70;47.90;;;;;;5053073;28;20028;-84
2020/12/06 06:21:37;;;;;;;7.20;2.45;;;14.70;47.90;;;;;;5052975;28;20029;-86
2020/12/06 06:24:19;;;;;;;5.38;2.28;;;14.70;47.80;;;;;;5052992;28;20077;-83
2020/12/06 06:26:48;;;;;;;4.43;2.40;;;14.80;47.70;;;;;;5052933;28;20500;-84
2020/12/06 06:29:15;;;;;;;6.85;2.60;;;14.80;47.70;;;;;;5052957;28;20083;-81
2020/12/06 06:31:49;;;;;;;6.75;2.47;;;14.90;47.50;;;;;;5051673;28;20108;-81
2020/12/06 06:34:16;;;;;;;3.13;2.00;;;14.90;47.40;;;;;;5052333;28;20021;-83
2020/12/06 06:36:45;;;;;;;5.90;2.15;;;14.90;47.30;;;;;;5052775;28;20036;-84
2020/12/06 06:39:18;;;;;;;6.80;2.40;;;14.90;47.10;;;;;;5051621;28;20037;-86
2020/12/06 06:42:10;;;;;;;4.63;2.40;;;14.90;47.10;;;;;;5052912;28;20482;-86
2020/12/06 06:44:39;;;;;;;5.95;2.28;;;15.00;47.10;;;;;;5051472;28;20052;-83
2020/12/06 06:47:08;;;;;;;6.88;2.40;;;15.00;47.00;;;;;;5051480;28;20025;-84
2020/12/06 06:49:57;;;;;;;8.75;2.80;;;15.00;46.90;;;;;;5051187;28;20033;-84
2020/12/06 06:52:25;;;;;;;6.82;2.78;;;15.00;46.90;;;;;;5051098;28;20113;-81
2020/12/06 06:54:53;;;;;;;4.85;2.70;;;15.00;46.90;;;;;;5052719;28;20104;-86
2020/12/06 06:57:21;;;;;;;5.50;2.85;;;15.10;46.90;;;;;;5053046;28;20025;-87
2020/12/06 06:59:48;;;;;;;5.20;2.90;;;15.10;46.90;;;;;;5051345;28;20087;-81
2020/12/06 07:02:42;;;;;;;4.95;2.72;;;15.10;46.90;;;;;;5048264;28;20033;-83
2020/12/06 07:05:20;;;;;;;4.60;2.93;;;15.00;46.90;;;;;;5046370;28;20035;-85
2020/12/06 07:07:49;;;;;;;6.70;2.70;;;15.00;46.90;;;;;;5052800;28;20047;-80
2020/12/06 07:10:23;;;;;;;7.43;3.25;;;15.00;46.90;;;;;;5051650;28;20410;-84
2020/12/06 07:12:50;;;;;;;;;;;15.00;46.90;;;;;;5053146;28;20017;-82
2020/12/06 07:15:18;;;;;;;7.70;4.00;;;15.10;47.20;;;;;;5052378;28;19916;-85
2020/12/06 07:17:45;;;;;;;5.90;3.58;;;15.00;47.00;;;;;;5052649;28;20056;-85
2020/12/06 07:20:12;;;;;;;8.80;4.72;;;15.00;47.00;;;;;;5053372;28;20033;-82
2020/12/06 07:22:39;;;;;;;11.55;5.03;;;15.00;47.10;;;;;;5056016;28;20482;-84
2020/12/06 07:25:07;;;;;;;6.68;3.38;;;15.00;47.20;;;;;;5056164;28;20033;-84
2020/12/06 07:27:34;;;;;;;8.93;3.72;;;14.90;47.20;;;;;;5054728;28;20025;-84
2020/12/06 07:30:00;;;;;;;7.45;3.20;;;14.90;47.20;;;;;;5056175;28;20501;-87
2020/12/06 07:32:26;;;;;;;8.57;3.50;;;15.00;47.60;;;;;;5055207;28;20528;-83
2020/12/06 07:34:52;;;;;;;7.10;3.60;;;15.00;47.40;;;;;;5056105;28;20100;-84
2020/12/06 07:37:18;;;;;;;6.85;3.53;;;15.00;47.40;;;;;;5056040;28;20033;-81
2020/12/06 07:39:49;;;;;;;5.03;3.05;;;15.00;47.40;;;;;;5056046;28;20025;-83
2020/12/06 07:42:23;;;;;;;12.85;3.47;;;15.00;47.40;;;;;;5056018;28;20059;-81
2020/12/06 07:44:59;;;;;;;4.60;2.92;;;15.00;47.30;;;;;;5055942;28;20108;-82
2020/12/06 07:47:25;;;;;;;11.00;3.47;;;15.10;47.40;;;;;;5055767;28;20493;-85
2020/12/06 07:49:53;;;;;;;7.10;3.42;;;15.10;47.30;;;;;;5055990;28;20032;-86
2020/12/06 07:52:32;;;;;;;9.27;3.00;;;15.20;47.30;;;;;;5055686;28;20021;-81
2020/12/06 07:55:06;;;;;;;5.43;2.85;;;15.20;47.20;;;;;;5054399;28;20386;-84
2020/12/06 07:57:38;;;;;;;6.07;2.92;;;15.30;47.00;;;;;;5054556;28;20532;-84
2020/12/06 08:00:19;;;;;;;7.97;3.92;;;15.40;47.10;;;;;;5055721;28;20033;-84
2020/12/06 08:02:52;;;;;;;5.90;3.63;;;15.40;46.90;;;;;;5054663;28;20068;-82
2020/12/06 08:05:23;;;;;;;5.07;2.83;;;15.50;46.90;;;;;;5053846;28;20382;-83
2020/12/06 08:08:18;;;;;;;30.60;17.15;;;15.50;46.70;;;;;;5055373;28;20543;-82
2020/12/06 08:10:50;;;;;;;8.60;3.45;;;15.60;46.70;;;;;;5053160;28;20037;-84
2020/12/06 08:13:16;;;;;;;7.95;3.90;;;15.60;46.70;;;;;;5055401;28;20021;-83
2020/12/06 08:15:42;;;;;;;6.95;3.28;;;15.70;46.40;;;;;;5055655;28;20021;-83
2020/12/06 08:18:16;;;;;;;5.22;2.88;;;15.70;46.50;;;;;;5035178;28;20029;-83
2020/12/06 08:20:54;;;;;;;6.00;2.97;;;15.80;46.40;;;;;;5035294;28;20025;-81
2020/12/06 08:23:36;;;;;;;5.30;2.78;;;15.90;46.20;;;;;;5034992;28;20093;-83
2020/12/06 08:26:02;;;;;;;3.58;2.30;;;15.90;46.20;;;;;;5050471;28;20381;-82
2020/12/06 08:28:29;;;;;;;4.18;2.65;;;16.00;46.00;;;;;;5034939;28;20029;-80
2020/12/06 08:30:55;;;;;;;5.25;2.55;;;16.10;45.90;;;;;;5050327;28;20168;-84
2020/12/06 08:33:28;;;;;;;4.63;2.55;;;16.20;45.60;;;;;;5049132;28;20382;-82
2020/12/06 08:35:58;;;;;;;9.00;2.85;;;16.30;45.40;;;;;;5055104;28;20017;-84
2020/12/06 08:38:29;;;;;;;5.78;2.47;;;16.40;45.30;;;;;;5053999;28;20029;-84
2020/12/06 08:41:02;;;;;;;6.32;3.13;;;16.50;45.30;;;;;;5053124;28;20048;-82
2020/12/06 08:43:50;;;;;;;4.67;2.70;;;16.60;45.10;;;;;;5053803;28;20029;-84
2020/12/06 08:46:25;;;;;;;6.18;2.80;;;16.70;44.60;;;;;;5053347;28;20263;-82
2020/12/06 08:48:54;;;;;;;4.95;2.30;;;16.80;44.60;;;;;;5053456;28;20029;-81
2020/12/06 08:51:24;;;;;;;8.85;4.15;;;16.90;44.60;;;;;;5053191;28;20024;-85
2020/12/06 08:53:50;;;;;;;13.80;5.57;;;17.00;44.30;;;;;;5053316;28;20028;-83
2020/12/06 08:56:38;;;;;;;7.60;4.45;;;17.10;44.30;;;;;;5052893;28;20029;-83
2020/12/06 08:59:15;;;;;;;8.68;3.40;;;17.10;44.00;;;;;;5054632;28;20029;-84
2020/12/06 09:01:49;;;;;;;9.95;3.90;;;17.10;43.70;;;;;;5053031;28;20108;-81
2020/12/06 09:04:16;;;;;;;7.13;4.43;;;17.20;43.80;;;;;;5052997;28;20026;-84
2020/12/06 09:06:42;;;;;;;9.45;5.00;;;17.30;43.90;;;;;;5053155;28;20505;-83
2020/12/06 09:09:08;;;;;;;7.28;3.88;;;17.30;43.60;;;;;;5053910;28;20024;-85
2020/12/06 09:11:34;;;;;;;9.15;3.53;;;17.30;43.60;;;;;;5052907;28;20031;-85
2020/12/06 09:14:00;;;;;;;11.80;5.15;;;17.30;43.50;;;;;;5053149;28;20029;-86
2020/12/06 09:16:26;;;;;;;16.13;4.57;;;17.40;43.40;;;;;;5054254;28;20025;-82
2020/12/06 09:18:51;;;;;;;16.30;5.38;;;17.40;43.30;;;;;;5052634;28;20048;-81
2020/12/06 09:21:17;;;;;;;9.15;4.30;;;17.50;43.30;;;;;;5054090;28;20061;-81
2020/12/06 09:23:45;;;;;;;5.35;3.08;;;17.50;43.20;;;;;;5053728;28;20041;-85
2020/12/06 09:26:11;;;;;;;14.13;4.97;;;17.50;43.10;;;;;;5052632;28;20033;-83
2020/12/06 09:28:36;;;;;;;10.10;3.67;;;17.60;43.20;;;;;;5052662;28;20422;-81
2020/12/06 09:31:03;;;;;;;6.20;3.65;;;17.70;43.20;;;;;;5054783;28;20136;-83
2020/12/06 09:33:29;;;;;;;7.93;2.88;;;17.70;43.00;;;;;;5054901;28;20431;-83
2020/12/06 09:35:55;;;;;;;8.88;3.95;;;17.80;43.10;;;;;;5055279;28;20025;-83
2020/12/06 09:38:21;;;;;;;15.88;4.85;;;17.90;42.70;;;;;;5060090;28;20110;-80
2020/12/06 09:40:47;;;;;;;12.80;3.25;;;17.90;42.80;;;;;;5057813;28;20048;-81
2020/12/06 09:43:13;;;;;;;8.32;3.00;;;17.90;42.70;;;;;;5053171;28;20068;-83
2020/12/06 09:45:41;;;;;;;15.60;3.10;;;18.00;42.70;;;;;;5053548;28;20108;-82
2020/12/06 09:48:07;;;;;;;7.07;3.50;;;18.00;42.50;;;;;;5053733;28;20037;-83
2020/12/06 09:50:32;;;;;;;7.07;3.13;;;18.10;42.60;;;;;;5052098;28;20025;-82
2020/12/06 09:52:58;;;;;;;17.13;3.95;;;18.10;42.70;;;;;;5053409;28;20020;-84
2020/12/06 09:55:24;;;;;;;10.88;3.75;;;18.10;42.70;;;;;;5051970;28;20032;-83
2020/12/06 09:57:50;;;;;;;28.55;4.85;;;18.20;42.50;;;;;;5053158;28;20676;-82
2020/12/06 10:00:16;;;;;;;13.02;3.97;;;18.20;42.50;;;;;;5053204;28;20047;-83
2020/12/06 10:02:43;;;;;;;15.50;3.35;;;18.20;42.30;;;;;;5052062;28;20534;-82
2020/12/06 10:05:08;;;;;;;5.95;2.70;;;18.20;42.30;;;;;;5053441;28;20086;-82
2020/12/06 10:07:34;;;;;;;17.40;3.83;;;18.10;42.40;;;;;;5053261;28;20024;-83
2020/12/06 10:10:00;;;;;;;8.43;3.20;;;18.10;42.40;;;;;;5053169;28;20024;-82
2020/12/06 10:12:26;;;;;;;10.27;2.83;;;18.20;42.50;;;;;;5051798;28;20032;-82
2020/12/06 10:14:52;;;;;;;6.30;2.92;;;18.10;42.60;;;;;;5054059;28;20421;-82
2020/12/06 10:17:17;;;;;;;10.57;3.45;;;18.20;42.60;;;;;;5054110;28;20028;-84
2020/12/06 10:19:43;;;;;;;7.13;3.70;;;18.10;42.60;;;;;;5053735;28;20029;-81
2020/12/06 10:22:09;;;;;;;8.05;3.22;;;18.10;42.70;;;;;;5052682;28;20513;-84
2020/12/06 10:24:35;;;;;;;7.45;2.95;;;18.10;42.80;;;;;;5050839;28;20124;-85
2020/12/06 10:27:01;;;;;;;4.43;2.78;;;18.10;42.90;;;;;;5054215;28;20067;-85
2020/12/06 10:29:26;;;;;;;4.95;2.67;;;18.10;42.90;;;;;;5053843;28;20029;-83
2020/12/06 10:31:53;;;;;;;8.43;4.10;;;18.20;42.90;;;;;;5051454;28;20028;-81
2020/12/06 10:34:21;;;;;;;7.30;3.90;;;18.20;42.90;;;;;;5053381;28;20024;-81
2020/12/06 10:36:55;;;;;;;17.17;7.97;;;18.20;42.80;;;;;;5053076;28;20082;-81
2020/12/06 10:39:22;;;;;;;12.45;7.03;;;18.20;42.90;;;;;;5052698;28;20494;-83
2020/12/06 10:41:49;;;;;;;7.00;4.18;;;18.30;43.00;;;;;;5050736;28;20029;-82
2020/12/06 10:44:15;;;;;;;13.07;4.20;;;18.30;42.90;;;;;;5045876;28;20086;-82
2020/12/06 10:46:41;;;;;;;6.72;3.60;;;18.20;42.90;;;;;;5034003;28;20038;-80
2020/12/06 10:49:07;;;;;;;11.85;3.33;;;18.20;43.00;;;;;;5040540;28;20057;-81
2020/12/06 10:51:33;;;;;;;9.32;3.38;;;18.30;43.00;;;;;;5049549;28;20035;-81
2020/12/06 10:53:59;;;;;;;8.20;3.17;;;18.30;43.00;;;;;;5054375;28;20013;-81
2020/12/06 10:56:26;;;;;;;7.72;3.15;;;18.30;42.90;;;;;;5055912;28;20025;-85
2020/12/06 10:58:53;;;;;;;7.55;3.03;;;18.30;42.70;;;;;;5056538;28;20143;-85
2020/12/06 11:01:24;;;;;;;11.52;2.90;;;18.40;42.70;;;;;;5057883;28;20025;-85
2020/12/06 11:03:50;;;;;;;5.82;2.70;;;18.40;42.60;;;;;;5061131;28;20025;-82
2020/12/06 11:06:19;;;;;;;9.93;2.88;;;18.40;43.00;;;;;;5065578;28;20048;-81
2020/12/06 11:08:45;;;;;;;5.00;2.60;;;18.50;42.50;;;;;;5055081;28;20042;-81
2020/12/06 11:11:13;;;;;;;9.10;3.05;;;18.60;42.50;;;;;;5053982;28;20026;-84
2020/12/06 11:13:39;;;;;;;9.52;3.20;;;18.60;42.40;;;;;;5072342;28;20040;-83
2020/12/06 11:16:05;;;;;;;12.18;2.42;;;18.60;42.30;;;;;;5073659;28;20029;-81
2020/12/06 11:18:31;;;;;;;7.85;2.58;;;18.60;42.10;;;;;;5078720;28;20028;-83
2020/12/06 11:20:57;;;;;;;9.85;2.78;;;18.60;42.00;;;;;;5074769;28;20013;-81
2020/12/06 11:23:22;;;;;;;6.85;2.60;;;18.60;42.00;;;;;;5058357;28;20086;-81
2020/12/06 11:25:48;;;;;;;5.97;2.13;;;18.60;41.90;;;;;;5060762;28;20470;-84
2020/12/06 11:28:14;;;;;;;12.80;2.95;;;18.60;41.80;;;;;;5055937;28;20029;-81
2020/12/06 11:30:40;;;;;;;11.50;2.53;;;18.60;41.70;;;;;;5055737;28;20032;-82
2020/12/06 11:33:06;;;;;;;15.02;2.60;;;18.60;41.80;;;;;;5056945;28;20025;-84
2020/12/06 11:35:33;;;;;;;7.03;2.70;;;18.70;41.90;;;;;;5055785;28;20454;-81
2020/12/06 11:37:59;;;;;;;8.00;2.60;;;18.70;41.70;;;;;;5067373;28;20111;-81
2020/12/06 11:40:25;;;;;;;6.20;2.65;;;18.80;41.70;;;;;;5061589;28;20087;-85
2020/12/06 11:42:51;;;;;;;11.00;2.22;;;18.80;41.80;;;;;;5065017;28;20028;-81
2020/12/06 11:45:17;;;;;;;6.88;2.30;;;18.90;41.60;;;;;;5068423;28;20078;-84
2020/12/06 11:47:42;;;;;;;13.13;2.53;;;19.00;41.40;;;;;;5057880;28;20424;-83
2020/12/06 11:50:09;;;;;;;9.40;2.10;;;19.10;41.20;;;;;;5056291;28;20078;-82
2020/12/06 11:52:34;;;;;;;4.93;2.20;;;19.20;41.50;;;;;;5038380;28;20022;-82
2020/12/06 11:55:00;;;;;;;7.55;2.40;;;19.30;40.80;;;;;;5056109;28;20024;-82
2020/12/06 11:57:26;;;;;;;5.40;2.35;;;19.30;40.60;;;;;;5056544;28;20029;-83
2020/12/06 11:59:53;;;;;;;6.15;2.05;;;19.30;40.20;;;;;;5059676;28;20035;-81
2020/12/06 12:02:19;;;;;;;3.63;1.90;;;19.40;40.50;;;;;;5076767;28;20024;-82
2020/12/06 12:04:46;;;;;;;7.25;2.22;;;19.40;40.40;;;;;;5068701;28;20056;-84
2020/12/06 12:07:12;;;;;;;4.65;2.08;;;19.40;40.00;;;;;;5055418;28;20017;-82
2020/12/06 12:09:38;;;;;;;8.05;2.65;;;19.40;40.10;;;;;;5054932;28;20031;-84
2020/12/06 12:12:04;;;;;;;5.32;2.60;;;19.40;40.00;;;;;;5056010;28;20028;-81
2020/12/06 12:14:30;;;;;;;4.90;2.50;;;19.30;39.80;;;;;;5055217;28;20021;-82
2020/12/06 12:16:56;;;;;;;3.58;2.13;;;19.30;39.90;;;;;;5055168;28;20028;-81
2020/12/06 12:19:22;;;;;;;5.38;3.08;;;19.40;40.10;;;;;;5054792;28;20390;-82
2020/12/06 12:21:48;;;;;;;8.95;2.58;;;19.40;39.90;;;;;;5054533;28;20071;-82
2020/12/06 12:24:13;;;;;;;10.57;2.67;;;19.30;39.50;;;;;;5055604;28;20045;-85
2020/12/06 12:26:39;;;;;;;11.52;2.65;;;19.30;39.80;;;;;;5055503;28;20032;-82
2020/12/06 12:29:05;;;;;;;7.18;2.97;;;19.30;39.50;;;;;;5055667;28;20025;-82
2020/12/06 12:31:32;;;;;;;5.85;3.08;;;19.30;39.70;;;;;;5055416;28;20017;-80
2020/12/06 12:33:59;;;;;;;3.97;2.60;;;19.40;39.50;;;;;;5055351;28;20025;-84
2020/12/06 12:36:25;;;;;;;7.70;2.72;;;19.30;39.60;;;;;;5053850;28;20031;-83
2020/12/06 12:38:51;;;;;;;4.40;2.58;;;19.40;39.50;;;;;;5051115;28;20030;-84
2020/12/06 12:41:17;;;;;;;7.97;2.72;;;19.40;39.50;;;;;;5049971;28;20029;-82
2020/12/06 12:43:43;;;;;;;11.88;2.95;;;19.40;39.30;;;;;;5055961;28;20036;-81
2020/12/06 12:46:09;;;;;;;9.57;2.53;;;19.40;39.40;;;;;;5054646;28;20074;-85
2020/12/06 12:48:36;;;;;;;4.93;2.80;;;19.40;39.30;;;;;;5055069;28;20029;-81